Flanders, NJ (07836)

4:22 PM EST on January 28, 2015 (GMT -0500)
Carlton Hill | Change Station
CLOSE
Current Station
Personal Weather Station
Location: Flanders, NJ
Elevation: 1070 ft
Nearby Weather Stations

Elev 1070 ft 40.86 °N, 74.71 °W | Updated 49 seconds ago

Clear
Clear
27.3 °F
Feels Like 19 °F
N
7.5
Wind Variable Wind from WSW
Gusts 12.7 mph

Today
High -- | Low -- °F
--% Chance of Precip.
Yesterday
High -- | Low -- °F
Precip. -- in
7:12 AM 5:10 PM
Waxing Gibbous, 68% visible
Pressure 30.12 in
Visibility 10.0 miles
Clouds Clear
Windchill 19 °F
Dew Point -1 °F
Humidity 28%
Rainfall 0.00 in
Snow Depth Not available.
UV 1 out of 12
Pollen .10 out of 12
Air Quality Not available.
Flu Activity Not available.
METAR KSMQ 282053Z AUTO 35012G20KT 320V020 10SM CLR 01/M15 A3011 RMK AO2 SLP198 T00111150 53014 TSNO

More Conditions Fewer Conditions

Pressure 30.12 in
Visibility 10.0 miles
Clouds Clear
Windchill 19 °F
Dew Point -1 °F
Humidity 28%
Rainfall 0.00 in
Snow Depth Not available.
UV 1 out of 12
Pollen .10 out of 12
Air Quality Not available.
Flu Activity Not available.
METAR KSMQ 282053Z AUTO 35012G20KT 320V020 10SM CLR 01/M15 A3011 RMK AO2 SLP198 T00111150 53014 TSNO

More Conditions Fewer Conditions

10-Day Weather Forecast

Almanac

Astronomy

Jan. 28, 2015 Rise Set
Actual Time
Civil Twilight
Nautical Twilight
Astronomical Twilight
Moon
Length of Visible Light
Length of Day
Tomorrow will be .
, % of the Moon is Illuminated

Today's Extremes

State Highs State Lows

Community

WunderPhotos

Upload Photos

1,791,263 photos uploaded!

WunderBlogs® & News

Nearby

Air Quality

  Air Quality AQ Index Pollutant
Not available.

Snow Depth

Station Depth Elevation

Earthquake Activity

City Distance Mag. Time & Date
Minimum magnitude displayed is 2.5.

Coastal Water Temperatures

Place Temperature

Nearby Weather Stations